HIDDEN DAM (HENSLEY) (HID)

Elevation: 561' · FRESNO R basin · Operator: US Army Corps of Engineers

Provisional data, subject to change.
Query executed Friday at 19:37:52   clock

Select a sensor type for a plot of data.
Note: Reservoir Flows are daily averages.

Earlier

Date RES ELE    STORAGE    RES CHG    TOC STO    ABV TOC    OUTFLOW    INFLOW    PPT INC    TEMP MN    TEMP MX    WINDLEN    EVP PAN   
 FEET   AF   AF   AF   AF   CFS   CFS   INCHES   DEG F   DEG F   MILES   INCHES  
12/31/2014 449.84 5507 0 -- -- -- -- -- -- -- -- --
01/01/2015 449.88 5519 12 28288 -22769 0 7 0.00 -2 11 112 0.06
01/02/2015 449.91 5528 9 28600 -23072 0 5 0.00 -1 11 112 0.07
01/03/2015 449.94 5537 9 28917 -23380 0 5 0.00 -1 13 110 0.07
01/04/2015 449.97 5546 9 29238 -23692 0 5 0.00 1 13 110 0.06
01/05/2015 450.00 5555 9 29551 -23996 0 5 0.00 2 14 105 0.06
01/06/2015 450.04 5567 12 29864 -24297 0 7 0.00 4 17 112 0.07
01/07/2015 450.07 5576 9 30191 -24615 0 5 0.00 5 18 106 0.08
01/08/2015 450.11 5589 13 30527 -24938 0 7 0.00 6 19 106 0.08
01/09/2015 450.15 5601 12 30866 -25265 0 7 0.00 9 18 84 0.06
01/10/2015 450.18 5610 9 31209 -25599 0 5 0.00 8 17 88 0.06
01/11/2015 450.22 5622 12 31548 -25926 0 7 0.00 8 18 94 0.06
01/12/2015 450.26 5634 12 31845 -26211 0 6 0.00 7 12 66 0.03
01/13/2015 450.30 5647 13 32143 -26496 0 7 0.00 7 15 79 0.05
01/14/2015 450.33 5656 9 32440 -26784 0 5 0.00 4 17 100 0.07
01/15/2015 450.37 5668 12 32738 -27070 0 7 0.00 2 12 86 0.05
01/16/2015 450.40 5677 9 33036 -27359 0 5 0.00 6 11 73 0.04
01/17/2015 450.43 5687 10 33333 -27646 0 6 0.00 5 13 98 0.05
01/18/2015 450.47 5699 12 33631 -27932 0 6 0.00 6 9 63 0.03
01/19/2015 450.51 5711 12 33929 -28218 0 6 0.00 6 9 61 0.03
01/20/2015 450.54 5721 10 34226 -28505 0 5 0.00 7 10 64 0.03
01/21/2015 450.58 5733 12 34524 -28791 0 6 0.00 8 10 71 0.03
01/22/2015 450.61 5742 9 34821 -29079 0 5 0.00 4 11 77 0.04
01/23/2015 450.63 5749 -153 35119 -29530 0 4 0.00 2 7 83 0.02
01/24/2015 450.68 5764 175 35417 -29653 0 8 0.00 1 12 78 0.05
01/25/2015 450.71 5773 9 35714 -29941 0 5 0.00 0 11 70 0.04
01/26/2015 450.73 5780 7 36012 -30232 0 4 0.00 3 16 90 0.06
01/27/2015 450.77 5794 15 36310 -30515 0 8 0.15 10 18 103 0.07
01/28/2015 450.80 5802 7 36607 -30805 0 5 0.00 6 14 95 0.06
01/29/2015 450.84 5814 12 36905 -31091 0 7 0.00 7 16 91 0.07
01/30/2015 -- -- -- -- -- -- -- -- -- -- -- --

Later | Latest

Warning! This data is preliminary and subject to revision.

Show HID Map | Plot HID Data | 1 Month HID Data | Real-Time HID Data | HID Info